Wagner, Pennsylvania
Current Conditions -  °F | °C
As of 11:15 PM on Tuesday 27 Jan 2015 (Local Time) from KUNV Reporting Station
Clear Clear  
Wind Chill:   Ceiling: Unl
Heat Index: 15°   Visibility: 10mi
Dew Point:   Wind: 8mph
Humidity: 62%   Direction: 330°NNW
Pressure: 30.02"   Gusts: NA
Location:  40.7125°N, 77.3707°W
Report Text: KUNV 280415Z AUTO 33007KT 10SM CLR M10/M16 A3002 RMK AO2 T10961157
Loading
Personal Weather Stations






























Interactive Weather Map New forecast layout! Learn more

10-Day Weather Forecast

Advertisements
Track Severe Weather on mobile